Time;durP1;ratioP1;P1;durP2;ratioP2;P2;SDS_P1;SDS_P2;PMS_P1;PMS_P2;Temp;Humidity;BMP_temperature;BMP_pressure;BME280_temperature;BME280_humidity;BME280_pressure;Samples;Min_cycle;Max_cycle;Signal;HPM_P1;HPM_P2
2022/02/25 00:02:27;;;;;;;5.77;1.27;;;4.00;99.90;;;4.10;64.74;97873.00;6237545;23;20024;-38
2022/02/25 00:04:55;;;;;;;1.87;1.03;;;4.00;99.90;;;4.21;65.42;97875.66;6235680;23;20035;-39
2022/02/25 00:07:22;;;;;;;2.00;1.57;;;4.10;99.90;;;4.06;64.43;97882.09;6237006;23;20075;-38
2022/02/25 00:09:50;;;;;;;2.73;1.23;;;4.00;99.90;;;4.08;65.00;97880.16;6236393;23;20027;-38
2022/02/25 00:12:19;;;;;;;3.13;1.37;;;3.90;99.90;;;4.02;64.26;97897.28;6237388;23;20214;-39
2022/02/25 00:14:47;;;;;;;3.37;1.37;;;3.90;99.90;;;4.05;64.55;97893.56;6236963;23;20239;-39
2022/02/25 00:17:15;;;;;;;3.10;1.50;;;3.90;99.90;;;3.85;64.36;97900.31;6210496;23;20304;-39
2022/02/25 00:19:43;;;;;;;3.27;1.57;;;3.80;99.90;;;3.85;64.73;97908.22;6236093;23;20327;-39
2022/02/25 00:22:12;;;;;;;1.83;1.10;;;3.70;99.90;;;3.82;64.24;97908.44;6208875;23;20026;-39
2022/02/25 00:24:40;;;;;;;2.73;1.50;;;3.70;99.90;;;3.88;63.73;97905.38;6208053;23;20026;-39
2022/02/25 00:27:08;;;;;;;3.10;1.43;;;3.80;99.90;;;3.84;64.25;97911.78;6236293;23;20027;-38
2022/02/25 00:29:36;;;;;;;3.37;2.80;;;3.70;99.90;;;3.72;64.72;97914.38;6237364;23;20016;-39
2022/02/25 00:32:04;;;;;;;4.53;1.43;;;3.70;99.90;;;3.66;64.91;97933.25;6238069;23;20019;-38
2022/02/25 00:34:32;;;;;;;1.40;1.10;;;3.60;99.90;;;3.61;65.83;97939.81;6236715;23;20012;-38
2022/02/25 00:37:00;;;;;;;3.20;1.30;;;3.60;99.90;;;3.61;65.80;97952.97;6235410;23;20022;-39
2022/02/25 00:39:27;;;;;;;2.87;1.40;;;3.60;99.90;;;3.65;65.54;97946.53;6236677;23;20012;-39
2022/02/25 00:41:56;;;;;;;2.93;1.70;;;3.60;99.90;;;3.70;65.69;97947.03;6236055;23;20028;-38
2022/02/25 00:44:23;;;;;;;2.40;1.10;;;3.60;99.90;;;3.78;65.52;97944.72;6236275;23;20361;-39
2022/02/25 00:46:52;;;;;;;4.43;1.50;;;3.60;99.90;;;3.84;65.38;97953.94;6236276;23;20500;-39
2022/02/25 00:49:20;;;;;;;2.83;1.60;;;3.70;99.90;;;3.76;65.69;97943.94;6237333;23;20369;-39
2022/02/25 00:51:48;;;;;;;3.70;1.50;;;3.70;99.90;;;3.56;65.79;97969.09;6235455;23;20020;-39
2022/02/25 00:54:16;;;;;;;2.43;1.00;;;3.50;99.90;;;3.47;65.94;97978.50;6235298;23;20012;-38
2022/02/25 00:56:44;;;;;;;2.33;1.27;;;3.40;99.90;;;3.30;66.56;97960.41;6235742;23;20012;-39
2022/02/25 00:59:11;;;;;;;4.00;1.40;;;3.30;99.90;;;3.35;66.41;97976.72;6236174;23;20013;-39
2022/02/25 01:01:40;;;;;;;2.17;1.17;;;3.30;99.90;;;3.29;66.90;97977.16;6236343;23;20306;-38
2022/02/25 01:04:08;;;;;;;2.40;1.30;;;3.30;99.90;;;3.15;66.82;97980.75;6235123;23;20018;-39
2022/02/25 01:06:36;;;;;;;2.80;1.43;;;3.10;99.90;;;3.24;66.77;97997.66;6235258;23;20363;-39
2022/02/25 01:09:04;;;;;;;3.27;1.63;;;3.20;99.90;;;3.22;66.14;97979.38;6235414;23;20018;-39
2022/02/25 01:11:32;;;;;;;4.10;1.60;;;3.20;99.90;;;3.12;66.35;97966.03;6209090;23;20019;-38
2022/02/25 01:14:00;;;;;;;2.23;1.30;;;3.10;99.90;;;3.14;66.51;97981.69;6234887;23;20205;-38
2022/02/25 01:16:28;;;;;;;3.40;2.43;;;3.10;99.90;;;3.17;66.60;97978.84;6234952;23;20012;-39
2022/02/25 01:18:56;;;;;;;3.87;1.80;;;3.10;99.90;;;3.20;66.36;97983.91;6235699;23;20016;-39
2022/02/25 01:21:24;;;;;;;2.13;1.40;;;3.10;99.90;;;3.14;66.67;97997.47;6236864;23;20018;-39
2022/02/25 01:23:52;;;;;;;3.47;1.60;;;3.10;99.90;;;3.13;66.28;98004.53;6236655;23;20022;-39
2022/02/25 01:26:20;;;;;;;3.20;1.10;;;3.10;99.90;;;3.09;66.12;97995.16;6235921;23;20016;-39
2022/02/25 01:28:48;;;;;;;4.90;2.50;;;3.00;99.90;;;3.19;66.14;97999.78;6235484;23;20019;-39
2022/02/25 01:31:17;;;;;;;5.23;1.63;;;3.10;99.90;;;3.20;65.46;98004.09;6209583;23;20209;-39
2022/02/25 01:33:46;;;;;;;3.73;1.40;;;3.10;99.90;;;3.23;64.90;98004.72;6235020;23;20012;-39
2022/02/25 01:36:14;;;;;;;3.37;1.10;;;3.20;99.90;;;3.08;63.80;98025.06;6235223;23;20018;-39
2022/02/25 01:38:42;;;;;;;2.27;1.07;;;3.10;99.90;;;3.14;63.98;98011.47;6206771;23;20022;-38
2022/02/25 01:41:10;;;;;;;2.17;1.10;;;3.10;99.90;;;3.19;63.67;98013.78;6235024;23;20020;-39
2022/02/25 01:43:38;;;;;;;2.73;1.10;;;3.10;99.90;;;3.27;63.67;98008.81;6235491;23;20024;-39
2022/02/25 01:46:06;;;;;;;2.83;1.40;;;3.20;99.90;;;3.26;63.50;98022.13;6235574;23;20184;-39
2022/02/25 01:48:34;;;;;;;3.53;1.30;;;3.20;99.90;;;3.32;63.58;98019.88;6207652;23;20019;-39
2022/02/25 01:51:03;;;;;;;3.63;1.23;;;3.20;99.90;;;3.38;63.47;98018.63;6234821;23;20147;-39
2022/02/25 01:53:31;;;;;;;2.53;0.93;;;3.20;99.90;;;3.44;63.39;98012.91;6208752;23;20218;-39
2022/02/25 01:55:59;;;;;;;2.60;1.00;;;3.30;99.90;;;3.34;62.60;98017.97;6234438;23;20046;-39
2022/02/25 01:58:28;;;;;;;3.17;1.37;;;3.20;99.90;;;3.34;62.60;98028.50;6234609;23;20034;-39
2022/02/25 02:00:59;;;;;;;2.10;0.93;;;3.20;99.90;;;3.37;62.69;98016.09;6234980;23;20310;-39
2022/02/25 02:03:28;;;;;;;1.50;0.90;;;3.20;99.90;;;3.43;62.56;98031.44;6233336;23;20020;-39
2022/02/25 02:05:56;;;;;;;3.13;0.83;;;3.20;99.90;;;3.50;62.37;98028.28;6236237;23;20016;-39
2022/02/25 02:08:24;;;;;;;2.57;1.00;;;3.40;99.90;;;3.48;61.89;98032.81;6235315;23;20340;-39
2022/02/25 02:10:53;;;;;;;3.33;1.13;;;3.30;99.90;;;3.41;62.01;98030.72;6236102;23;20016;-39
2022/02/25 02:13:21;;;;;;;1.30;0.80;;;3.30;99.90;;;3.43;61.63;98041.97;6233633;23;20192;-39
2022/02/25 02:15:49;;;;;;;3.80;1.27;;;3.30;98.70;;;3.41;61.35;98038.59;6209653;23;20337;-39
2022/02/25 02:18:17;;;;;;;1.50;1.17;;;3.30;99.00;;;3.47;61.97;98053.97;6234325;23;20020;-39
2022/02/25 02:20:44;;;;;;;3.13;1.37;;;3.30;99.00;;;3.49;61.84;98055.56;6234398;23;20042;-39
2022/02/25 02:23:12;;;;;;;3.30;1.13;;;3.30;98.90;;;3.47;61.82;98048.69;6235839;23;20283;-39
2022/02/25 02:25:40;;;;;;;4.97;0.90;;;3.30;99.50;;;3.33;61.61;98047.91;6234167;23;20016;-39
2022/02/25 02:28:21;;;;;;;2.47;1.13;;;3.10;98.80;;;3.40;61.73;98061.47;6208620;23;20016;-39
2022/02/25 02:30:49;;;;;;;1.80;0.90;;;3.10;98.40;;;3.38;61.24;98057.25;6249428;23;20030;-39
2022/02/25 02:33:17;;;;;;;5.53;1.40;;;3.10;98.70;;;3.43;61.73;98060.41;6239498;23;20020;-39
2022/02/25 02:35:45;;;;;;;3.93;1.10;;;3.20;97.60;;;3.43;61.35;98057.78;6234966;23;20311;-39
2022/02/25 02:38:13;;;;;;;3.77;1.07;;;3.30;97.30;;;3.48;61.41;98064.41;6237929;23;20034;-39
2022/02/25 02:40:41;;;;;;;4.10;1.70;;;3.30;96.70;;;3.52;61.71;98057.13;6234730;23;20031;-38
2022/02/25 02:43:13;;;;;;;2.73;1.10;;;3.30;96.20;;;3.51;61.34;98066.00;6236939;23;20234;-39
2022/02/25 02:45:41;;;;;;;6.00;1.20;;;3.30;95.70;;;3.46;61.38;98068.94;6211408;23;20026;-40
2022/02/25 02:48:09;;;;;;;3.87;1.17;;;3.30;95.60;;;3.47;61.18;98068.00;6237041;23;20024;-39
2022/02/25 02:50:37;;;;;;;4.73;1.00;;;3.30;95.70;;;3.45;61.44;98067.25;6237019;23;20030;-39
2022/02/25 02:53:05;;;;;;;6.53;1.53;;;3.20;95.40;;;3.46;61.39;98066.28;6237240;23;20020;-39
2022/02/25 02:55:33;;;;;;;4.20;1.80;;;3.30;95.50;;;3.50;61.09;98069.56;6236794;23;20027;-39
2022/02/25 02:58:01;;;;;;;3.30;1.10;;;3.30;95.20;;;3.50;60.94;98066.94;6237791;23;20010;-39
2022/02/25 03:00:30;;;;;;;3.83;1.10;;;3.30;95.20;;;3.52;61.14;98076.41;6235219;23;20231;-39
2022/02/25 03:02:58;;;;;;;3.60;1.40;;;3.30;95.10;;;3.53;61.11;98072.00;6237805;23;20314;-39
2022/02/25 03:05:26;;;;;;;6.60;1.00;;;3.30;94.80;;;3.50;61.41;98077.47;6208527;23;20023;-38
2022/02/25 03:07:55;;;;;;;3.63;1.30;;;3.30;94.70;;;3.49;61.39;98076.63;6211484;23;20378;-38
2022/02/25 03:10:22;;;;;;;4.10;1.40;;;3.30;94.30;;;3.51;61.29;98077.38;6237412;23;20318;-38
2022/02/25 03:12:50;;;;;;;3.00;0.90;;;3.30;94.70;;;3.54;61.39;98074.50;6237869;23;20364;-38
2022/02/25 03:15:18;;;;;;;5.40;1.40;;;3.30;94.60;;;3.57;60.87;98073.47;6237432;23;20568;-39
2022/02/25 03:17:46;;;;;;;6.67;2.10;;;3.30;94.90;;;3.53;61.58;98085.16;6236860;23;20340;-39
2022/02/25 03:20:15;;;;;;;2.97;0.93;;;3.20;94.50;;;3.52;61.05;98094.81;6236947;23;20020;-39
2022/02/25 03:22:44;;;;;;;3.90;1.10;;;3.20;94.30;;;3.54;61.43;98092.94;6236378;23;20079;-39
2022/02/25 03:25:17;;;;;;;4.90;1.10;;;3.20;94.30;;;3.55;61.55;98099.91;6246002;23;20031;-38
2022/02/25 03:27:45;;;;;;;3.73;1.00;;;3.20;94.30;;;3.55;61.19;98099.91;6236243;23;20023;-38
2022/02/25 03:30:16;;;;;;;2.63;1.20;;;3.20;94.00;;;3.61;61.20;98103.06;6236090;23;20329;-38
2022/02/25 03:32:44;;;;;;;3.83;1.20;;;3.30;93.80;;;3.61;60.90;98097.78;6210341;23;20024;-38
2022/02/25 03:35:14;;;;;;;4.07;1.23;;;3.30;93.50;;;3.59;61.05;98102.28;6237378;23;20020;-38
2022/02/25 03:37:42;;;;;;;2.67;1.10;;;3.30;93.50;;;3.59;61.45;98104.94;6237807;23;20012;-39
2022/02/25 03:40:12;;;;;;;7.57;2.03;;;3.30;93.10;;;3.49;61.19;98100.31;6211231;23;20016;-38
2022/02/25 03:42:40;;;;;;;4.23;1.30;;;3.20;91.70;;;3.53;61.03;98101.78;6209906;23;20024;-38
2022/02/25 03:45:10;;;;;;;5.80;2.20;;;3.30;92.30;;;3.53;61.13;98103.59;6208834;23;20214;-39
2022/02/25 03:47:38;;;;;;;5.33;1.33;;;3.30;91.50;;;3.55;61.31;98109.59;6236599;23;20016;-38
2022/02/25 03:50:08;;;;;;;3.70;2.13;;;3.30;91.20;;;3.53;60.97;98107.06;6234700;23;20218;-38
2022/02/25 03:52:36;;;;;;;3.83;1.10;;;3.30;90.70;;;3.45;61.47;98126.94;6237008;23;20022;-38
2022/02/25 03:55:06;;;;;;;3.80;1.60;;;3.20;90.10;;;3.42;61.39;98116.63;6235870;23;20019;-38
2022/02/25 03:57:34;;;;;;;4.93;1.70;;;3.20;90.00;;;3.37;61.37;98116.94;6237831;23;20209;-38
2022/02/25 04:00:06;;;;;;;3.20;1.20;;;3.20;90.30;;;3.43;61.75;98129.69;6237266;23;20012;-38
2022/02/25 04:02:39;;;;;;;5.87;1.87;;;3.20;90.20;;;3.47;61.18;98128.53;6220884;23;20042;-38
2022/02/25 04:05:10;;;;;;;3.33;1.80;;;3.20;89.90;;;3.43;61.29;98131.47;6236198;23;20028;-39
2022/02/25 04:07:41;;;;;;;5.80;2.10;;;3.20;89.50;;;3.48;61.34;98135.47;6236182;23;20216;-38
2022/02/25 04:10:11;;;;;;;5.57;2.37;;;3.20;89.60;;;3.55;61.60;98133.28;6247343;23;20031;-38
2022/02/25 04:12:40;;;;;;;4.97;1.57;;;3.30;89.10;;;3.55;61.24;98142.00;6238581;23;20016;-38
2022/02/25 04:15:09;;;;;;;12.60;2.30;;;3.40;88.20;;;3.58;61.53;98138.31;6185041;23;20464;-38
2022/02/25 04:17:38;;;;;;;7.63;2.27;;;3.40;88.00;;;3.60;60.82;98139.06;6235768;23;20023;-39
2022/02/25 04:20:07;;;;;;;4.93;1.93;;;3.40;87.50;;;3.64;61.33;98145.78;6236282;23;20217;-39
2022/02/25 04:22:35;;;;;;;9.30;2.80;;;3.40;87.60;;;3.68;61.05;98142.03;6235246;23;20024;-38
2022/02/25 04:25:03;;;;;;;7.27;2.53;;;3.40;87.30;;;3.66;61.02;98149.16;6237841;23;20024;-42
2022/02/25 04:27:31;;;;;;;5.70;2.00;;;3.40;87.10;;;3.68;60.94;98151.69;6235453;23;20028;-38
2022/02/25 04:29:59;;;;;;;7.97;2.50;;;3.40;86.60;;;3.70;60.93;98153.28;6235039;23;20068;-38
2022/02/25 04:32:26;;;;;;;6.43;2.50;;;3.40;86.70;;;3.74;60.99;98159.16;6236507;23;20034;-39
2022/02/25 04:34:54;;;;;;;5.43;1.80;;;3.50;86.20;;;3.70;60.99;98152.44;6236734;23;20190;-38
2022/02/25 04:37:22;;;;;;;10.17;3.07;;;3.40;86.30;;;3.71;60.84;98156.75;6209496;23;20038;-38
2022/02/25 04:39:50;;;;;;;5.10;2.13;;;3.40;84.20;;;3.74;60.79;98162.66;6235074;23;20044;-39
2022/02/25 04:42:18;;;;;;;4.33;1.40;;;3.40;83.50;;;3.73;60.91;98160.13;6236366;23;20202;-38
2022/02/25 04:44:46;;;;;;;6.47;2.10;;;3.40;83.00;;;3.74;60.72;98177.59;6236956;23;20416;-38
2022/02/25 04:47:14;;;;;;;5.57;2.00;;;3.40;83.20;;;3.75;60.67;98172.25;6236647;23;20205;-38
2022/02/25 04:49:42;;;;;;;5.13;2.03;;;3.40;82.80;;;3.75;60.57;98172.25;6235500;23;20016;-38
2022/02/25 04:52:12;;;;;;;6.17;1.63;;;3.40;82.40;;;3.77;60.46;98168.66;6236236;23;20038;-39
2022/02/25 04:54:41;;;;;;;7.03;1.87;;;3.40;82.30;;;3.77;60.68;98171.31;6236105;23;20020;-38
2022/02/25 04:57:09;;;;;;;5.30;1.40;;;3.40;82.10;;;3.73;60.52;98178.56;6235694;23;20026;-39
2022/02/25 04:59:39;;;;;;;3.70;1.70;;;3.40;81.60;;;3.74;60.60;98181.09;6234977;23;20039;-38
2022/02/25 05:02:08;;;;;;;9.13;2.50;;;3.50;81.40;;;3.75;60.94;98180.13;6236292;23;20027;-39
2022/02/25 05:04:36;;;;;;;10.93;3.87;;;3.50;81.30;;;3.78;60.82;98186.13;6234759;23;20078;-39
2022/02/25 05:07:04;;;;;;;6.70;2.20;;;3.50;80.80;;;3.74;60.40;98183.75;6235747;23;20023;-38
2022/02/25 05:09:32;;;;;;;6.10;1.60;;;3.50;80.30;;;3.78;60.58;98186.13;6183413;23;20020;-38
2022/02/25 05:12:00;;;;;;;6.20;2.00;;;3.50;80.80;;;3.81;59.81;98189.41;6236270;23;20318;-39
2022/02/25 05:20:23;;;;;;;5.50;1.83;;;3.60;80.10;;;3.86;60.30;98194.38;6219286;23;20020;-38
2022/02/25 05:23:00;;;;;;;2.37;1.60;;;3.50;80.80;;;3.81;59.91;98196.47;6246328;23;20209;-38
2022/02/25 05:25:29;;;;;;;8.50;2.43;;;3.60;78.30;;;3.84;60.01;98197.13;6234783;23;20028;-38
2022/02/25 05:27:57;;;;;;;8.30;2.10;;;3.50;79.40;;;3.86;60.25;98202.28;6234227;23;20326;-38
2022/02/25 05:30:27;;;;;;;4.40;1.73;;;3.50;79.60;;;3.82;60.46;98208.69;6233748;23;20028;-38
2022/02/25 05:32:55;;;;;;;8.10;2.90;;;3.50;79.40;;;3.82;60.11;98219.22;6234815;23;20028;-38
2022/02/25 05:35:24;;;;;;;7.27;1.83;;;3.60;78.70;;;3.80;60.27;98213.22;6235321;23;20020;-38
2022/02/25 05:37:57;;;;;;;8.33;1.87;;;3.60;78.90;;;3.82;60.40;98219.22;6235895;23;20314;-38
2022/02/25 05:40:25;;;;;;;6.07;2.00;;;3.60;79.20;;;3.85;60.19;98219.03;6236299;23;20206;-38
2022/02/25 05:42:53;;;;;;;5.67;2.13;;;3.60;78.70;;;3.82;59.91;98224.50;6237112;23;20020;-39
2022/02/25 05:45:21;;;;;;;4.80;1.63;;;3.60;78.20;;;3.76;59.98;98231.00;6236297;23;20030;-39
2022/02/25 05:47:53;;;;;;;5.53;2.17;;;3.50;78.40;;;3.78;60.48;98230.91;6233274;23;20026;-38
2022/02/25 05:50:22;;;;;;;7.57;2.60;;;3.50;78.40;;;3.77;60.15;98235.34;6235905;23;20024;-39
2022/02/25 05:52:54;;;;;;;7.03;2.00;;;3.50;78.40;;;3.77;60.15;98243.25;6235104;23;20360;-39
2022/02/25 05:55:23;;;;;;;3.97;1.77;;;3.50;78.20;;;3.79;59.90;98249.25;6234061;23;20307;-38
2022/02/25 05:57:52;;;;;;;4.73;1.23;;;3.50;77.90;;;3.80;60.18;98247.47;6236258;23;20019;-39
2022/02/25 06:00:21;;;;;;;4.33;1.80;;;3.50;78.00;;;3.83;59.62;98255.16;6208118;23;20012;-38
2022/02/25 06:02:50;;;;;;;7.63;2.50;;;3.50;77.80;;;3.79;59.96;98256.31;6234812;23;20026;-38
2022/02/25 06:05:21;;;;;;;7.13;2.50;;;3.50;77.60;;;3.75;59.61;98267.06;6209571;23;20035;-39
2022/02/25 06:07:50;;;;;;;5.33;1.90;;;3.40;77.70;;;3.75;59.71;98256.53;6245782;23;20024;-38
2022/02/25 06:10:17;;;;;;;5.77;2.20;;;3.40;77.40;;;3.76;59.24;98259.97;6236450;23;20351;-38
2022/02/25 06:12:45;;;;;;;4.67;1.90;;;3.40;77.10;;;3.74;60.18;98261.88;6236331;23;20352;-39
2022/02/25 06:15:13;;;;;;;7.90;2.60;;;3.40;77.10;;;3.72;59.66;98259.38;6236083;23;20004;-38
2022/02/25 06:17:47;;;;;;;10.57;2.60;;;3.40;76.80;;;3.70;59.41;98260.41;6235274;23;20315;-38
2022/02/25 06:20:20;;;;;;;6.83;3.30;;;3.40;76.60;;;3.68;59.58;98267.56;6240512;23;20020;-38
2022/02/25 06:22:48;;;;;;;3.07;2.40;;;3.40;76.30;;;3.71;59.29;98270.00;6246408;23;20298;-38
2022/02/25 06:25:17;;;;;;;5.43;1.93;;;3.40;76.20;;;3.72;59.59;98271.69;6236374;23;20023;-38
2022/02/25 06:27:45;;;;;;;6.27;2.50;;;3.40;75.80;;;3.69;59.32;98282.44;6234969;23;20035;-38
2022/02/25 06:30:15;;;;;;;4.20;1.50;;;3.40;75.70;;;3.67;59.51;98279.91;6234793;23;20028;-39
2022/02/25 06:32:44;;;;;;;6.53;2.93;;;3.40;75.70;;;3.69;59.78;98285.91;6234819;23;20034;-38
2022/02/25 06:35:13;;;;;;;9.53;2.90;;;3.40;75.70;;;3.68;59.24;98278.97;6235340;23;20018;-38
2022/02/25 06:37:41;;;;;;;3.97;2.03;;;3.30;75.70;;;3.72;59.57;98279.56;6235274;23;20020;-38
2022/02/25 06:40:10;;;;;;;4.03;2.10;;;3.30;75.60;;;3.69;59.63;98279.81;6234614;23;20031;-38
2022/02/25 06:42:39;;;;;;;9.23;2.47;;;3.30;75.60;;;3.69;59.34;98288.53;6210631;23;20012;-38
2022/02/25 06:45:15;;;;;;;4.50;1.53;;;3.30;75.70;;;3.67;59.04;98289.59;6234699;23;20214;-38
2022/02/25 06:47:44;;;;;;;3.33;1.70;;;3.30;75.50;;;3.66;59.37;98299.25;6235082;23;20024;-38
2022/02/25 06:50:14;;;;;;;5.73;1.83;;;3.30;75.00;;;3.66;59.31;98303.69;6235661;23;20213;-38
2022/02/25 06:52:42;;;;;;;4.33;1.80;;;3.30;74.80;;;3.65;59.31;98300.22;6236675;23;20016;-38
2022/02/25 06:55:13;;;;;;;7.87;1.80;;;3.40;74.80;;;3.66;59.65;98303.69;6235173;23;20012;-38
2022/02/25 06:58:05;;;;;;;29.43;5.20;;;3.40;74.40;;;3.69;59.57;98312.25;6235205;23;20357;-38
2022/02/25 07:00:36;;;;;;;7.53;3.83;;;3.40;74.70;;;3.69;59.02;98304.34;6245025;23;20199;-37
2022/02/25 07:03:06;;;;;;;8.57;3.40;;;3.40;74.50;;;3.70;59.52;98308.69;6207639;23;20299;-37
2022/02/25 07:05:39;;;;;;;5.30;2.10;;;3.40;75.10;;;3.72;59.45;98313.81;6236046;23;20200;-38
2022/02/25 07:08:09;;;;;;;8.60;2.53;;;3.40;74.80;;;3.75;59.45;98316.25;6244516;23;20024;-38
2022/02/25 07:10:38;;;;;;;18.07;9.37;;;3.40;75.00;;;3.75;59.54;98321.53;6232909;23;20207;-38
2022/02/25 07:13:09;;;;;;;11.60;5.60;;;3.40;75.50;;;3.76;59.93;98323.19;6210274;23;20118;-38
2022/02/25 07:15:37;;;;;;;7.93;2.77;;;3.40;75.30;;;3.77;59.60;98324.91;6236774;23;20024;-38
2022/02/25 07:18:06;;;;;;;4.13;2.60;;;3.40;75.00;;;3.77;59.15;98319.63;6211204;23;20237;-37
2022/02/25 07:20:34;;;;;;;5.97;2.70;;;3.40;74.50;;;3.80;59.22;98332.59;6236607;23;20012;-38
2022/02/25 07:23:03;;;;;;;7.13;2.50;;;3.50;74.70;;;3.76;59.38;98331.09;6235600;23;20229;-38
2022/02/25 07:25:31;;;;;;;4.37;1.70;;;3.40;74.20;;;3.77;59.14;98335.44;6236707;23;20326;-38
2022/02/25 07:27:59;;;;;;;7.90;2.30;;;3.50;74.10;;;3.80;58.99;98337.00;6236381;23;20028;-38
2022/02/25 07:30:28;;;;;;;5.50;1.87;;;3.50;73.50;;;3.83;58.86;98335.03;6235841;23;20030;-38
2022/02/25 07:32:56;;;;;;;9.43;5.83;;;3.60;73.70;;;3.88;59.33;98335.56;6237614;23;20057;-38
2022/02/25 07:35:25;;;;;;;5.87;1.70;;;3.60;74.10;;;3.91;59.39;98339.78;6236339;23;20482;-38
2022/02/25 07:37:53;;;;;;;6.43;1.80;;;3.70;73.70;;;3.91;58.69;98347.69;6238985;23;20035;-38
2022/02/25 07:40:26;;;;;;;5.47;2.47;;;3.70;73.00;;;3.94;59.03;98340.44;6209475;23;20016;-38
2022/02/25 07:42:57;;;;;;;7.10;3.07;;;3.80;72.60;;;4.00;58.71;98344.44;6208275;23;20310;-38
2022/02/25 07:45:26;;;;;;;9.57;3.57;;;3.90;72.20;;;4.02;58.58;98354.88;6246158;23;20024;-39
2022/02/25 07:47:54;;;;;;;6.33;2.47;;;3.90;71.50;;;4.05;58.65;98352.91;6235887;23;20028;-38
2022/02/25 07:50:26;;;;;;;3.50;1.93;;;3.90;71.50;;;4.06;58.63;98353.72;6236509;23;20020;-38
2022/02/25 07:52:55;;;;;;;5.27;2.07;;;4.00;71.60;;;4.14;58.74;98354.06;6238023;23;20023;-38
2022/02/25 07:55:27;;;;;;;9.10;2.53;;;4.00;72.00;;;4.20;58.96;98363.34;6235616;23;20028;-38
2022/02/25 07:57:57;;;;;;;4.77;1.97;;;4.10;71.00;;;4.23;58.67;98366.63;6236370;23;20038;-39
2022/02/25 08:00:28;;;;;;;8.73;2.13;;;4.20;71.00;;;4.23;58.08;98360.50;6246765;23;20020;-38
2022/02/25 08:02:57;;;;;;;9.57;2.73;;;4.20;70.40;;;4.22;58.87;98361.44;6236863;23;20329;-38
2022/02/25 08:05:25;;;;;;;8.30;3.83;;;4.20;70.50;;;4.27;57.94;98357.53;6208132;23;20019;-38
2022/02/25 08:07:53;;;;;;;11.03;2.90;;;4.20;70.70;;;4.33;58.39;98354.50;6235818;23;20020;-38
2022/02/25 08:10:21;;;;;;;6.33;2.10;;;4.30;70.90;;;4.40;58.58;98359.34;6236620;23;20015;-38
2022/02/25 08:12:49;;;;;;;5.67;1.53;;;4.40;71.10;;;4.46;58.60;98354.50;6237475;23;20048;-38
2022/02/25 08:15:17;;;;;;;7.97;2.03;;;4.40;70.90;;;4.49;58.38;98356.06;6236182;23;20026;-38
2022/02/25 08:17:47;;;;;;;3.37;1.60;;;4.40;69.70;;;4.48;57.93;98357.88;6235681;23;20046;-38
2022/02/25 08:20:16;;;;;;;3.50;1.60;;;4.40;69.60;;;4.48;57.78;98357.03;6236829;23;20030;-38
2022/02/25 08:22:45;;;;;;;5.40;2.17;;;4.40;69.70;;;4.42;57.48;98354.81;6209476;23;20034;-38
2022/02/25 08:25:13;;;;;;;3.47;1.40;;;4.40;69.00;;;4.46;57.26;98353.63;6235453;23;20027;-38
2022/02/25 08:27:43;;;;;;;5.13;1.57;;;4.40;69.60;;;4.42;57.76;98357.44;6235397;23;20020;-39
2022/02/25 08:30:14;;;;;;;4.80;2.10;;;4.30;69.20;;;4.48;57.88;98347.34;6235673;23;20020;-38
2022/02/25 08:32:46;;;;;;;5.00;1.67;;;4.30;70.00;;;4.47;57.98;98348.25;6236510;23;20053;-38
2022/02/25 08:35:17;;;;;;;7.10;1.57;;;4.40;69.60;;;4.47;57.65;98339.53;6235473;23;20022;-38
2022/02/25 08:37:47;;;;;;;4.03;1.50;;;4.40;69.20;;;4.52;57.35;98343.53;6209644;23;20024;-39
2022/02/25 08:40:16;;;;;;;2.90;1.63;;;4.40;68.70;;;4.53;57.73;98341.72;6209460;23;20600;-38
2022/02/25 08:42:45;;;;;;;6.40;2.10;;;4.40;69.10;;;4.57;57.75;98342.38;6236926;23;20024;-39
2022/02/25 08:45:14;;;;;;;8.07;2.63;;;4.40;69.10;;;4.61;56.71;98346.47;6237108;23;20026;-46
2022/02/25 08:47:44;;;;;;;4.50;1.33;;;4.50;68.40;;;4.58;57.21;98349.34;6235996;23;20020;-38
2022/02/25 08:50:16;;;;;;;6.70;1.50;;;4.50;68.00;;;4.61;56.35;98343.84;6209301;23;20020;-39
2022/02/25 08:52:47;;;;;;;3.77;1.80;;;4.60;68.30;;;4.56;55.37;98348.59;6247613;23;20306;-38
2022/02/25 08:55:16;;;;;;;5.33;1.73;;;4.60;65.50;;;4.60;56.30;98358.81;6233924;23;20209;-38
2022/02/25 08:57:44;;;;;;;7.13;1.73;;;4.60;66.30;;;4.43;55.11;98336.25;6236112;23;20019;-39
2022/02/25 09:00:16;;;;;;;4.53;1.43;;;4.50;64.20;;;4.50;54.96;98345.44;6205129;23;20186;-39
2022/02/25 09:02:45;;;;;;;14.73;3.60;;;4.50;64.80;;;4.58;55.66;98357.25;6183503;23;20023;-39
2022/02/25 09:05:14;;;;;;;5.23;1.60;;;4.60;65.30;;;4.62;55.49;98353.44;6234855;23;20209;-39
2022/02/25 09:07:45;;;;;;;6.27;2.20;;;4.60;64.60;;;4.73;55.24;98346.47;6234713;23;20024;-39
2022/02/25 09:10:15;;;;;;;4.30;1.80;;;4.70;65.30;;;4.76;54.61;98355.97;6235246;23;20027;-38
2022/02/25 09:12:47;;;;;;;4.97;1.83;;;4.80;64.10;;;4.73;54.56;98343.84;6245385;23;20023;-39
2022/02/25 09:15:23;;;;;;;4.00;0.97;;;4.80;62.60;;;4.58;53.86;98355.44;6208661;23;20050;-39
2022/02/25 09:17:55;;;;;;;6.00;1.97;;;4.70;62.50;;;4.70;54.29;98349.31;6208555;23;20024;-39
2022/02/25 09:20:24;;;;;;;4.63;2.33;;;4.80;62.80;;;4.71;54.42;98344.88;6235054;23;20494;-38
2022/02/25 09:22:53;;;;;;;6.80;1.50;;;4.80;62.50;;;4.84;54.14;98361.53;6235692;23;20012;-38
2022/02/25 09:25:27;;;;;;;7.80;1.70;;;4.90;63.50;;;4.85;54.36;98349.22;6235765;23;20023;-38
2022/02/25 09:27:57;;;;;;;4.23;1.77;;;5.00;61.40;;;4.89;54.11;98348.88;6235338;23;20020;-38
2022/02/25 09:30:25;;;;;;;4.07;1.87;;;5.00;62.20;;;4.96;53.10;98336.06;6234218;23;20028;-38
2022/02/25 09:32:53;;;;;;;2.40;1.20;;;5.10;60.10;;;4.85;52.61;98365.88;6235520;23;20024;-39
2022/02/25 09:35:21;;;;;;;6.53;2.10;;;5.00;60.30;;;5.01;53.31;98351.59;6183616;23;20028;-38
2022/02/25 09:37:52;;;;;;;9.47;1.97;;;5.10;62.00;;;5.02;53.29;98340.94;6234870;23;20172;-38
2022/02/25 09:40:21;;;;;;;9.23;2.47;;;5.20;61.20;;;5.06;53.45;98350.31;6236144;23;20038;-38
2022/02/25 09:42:52;;;;;;;9.33;1.80;;;5.20;60.30;;;4.97;52.60;98361.53;6235241;23;20298;-38
2022/02/25 09:45:20;;;;;;;4.77;1.70;;;5.10;61.10;;;4.99;53.43;98351.69;6235905;23;20306;-38
2022/02/25 09:47:48;;;;;;;5.23;1.20;;;5.10;62.10;;;5.10;53.69;98354.44;6235347;23;20325;-39
2022/02/25 09:50:19;;;;;;;4.97;2.43;;;5.20;61.60;;;5.15;53.18;98353.25;6208066;23;20020;-38
2022/02/25 09:52:48;;;;;;;7.90;1.87;;;5.30;61.30;;;5.05;52.34;98350.41;6246693;23;20063;-38
2022/02/25 09:55:32;;;;;;;4.87;1.20;;;5.20;60.20;;;5.18;52.42;98350.41;6234551;23;20022;-38
2022/02/25 09:58:05;;;;;;;5.20;1.98;;;5.30;60.70;;;5.10;52.49;98346.50;6244727;23;20012;-38
2022/02/25 10:00:40;;;;;;;9.57;2.07;;;5.20;60.30;;;5.27;52.66;98350.59;6234668;23;20024;-38
2022/02/25 10:03:16;;;;;;;4.83;1.50;;;5.40;60.80;;;5.30;52.32;98354.78;6246420;23;20330;-39
2022/02/25 10:05:46;;;;;;;7.37;2.37;;;5.40;59.60;;;5.33;51.50;98344.00;6244820;23;20012;-39
2022/02/25 10:08:20;;;;;;;4.10;1.63;;;5.50;57.60;;;5.31;51.75;98354.69;6234770;23;20016;-39
2022/02/25 10:10:56;;;;;;;8.88;1.80;;;5.40;58.60;;;5.35;50.29;98357.09;6245448;23;20197;-39
2022/02/25 10:13:27;;;;;;;3.03;1.40;;;5.50;57.80;;;5.38;49.89;98356.88;6245175;23;20413;-38
2022/02/25 10:16:18;;;;;;;6.50;1.60;;;5.50;57.00;;;5.46;51.86;98362.44;6234351;23;20034;-39
2022/02/25 10:18:46;;;;;;;3.93;1.53;;;5.60;58.30;;;5.46;50.27;98365.09;6208000;23;20016;-39
2022/02/25 10:21:21;;;;;;;4.57;2.10;;;5.60;56.60;;;5.51;50.90;98363.78;6235456;23;20020;-39
2022/02/25 10:23:49;;;;;;;5.53;1.80;;;5.60;58.10;;;5.52;50.05;98357.56;6245962;23;20042;-39
2022/02/25 10:26:20;;;;;;;4.40;1.47;;;5.70;56.10;;;5.59;50.79;98339.47;6209176;23;20454;-39
2022/02/25 10:28:54;;;;;;;6.27;2.37;;;5.80;56.80;;;5.64;49.43;98384.88;6219636;23;20020;-39
2022/02/25 10:31:34;;;;;;;4.87;1.63;;;5.90;55.20;;;5.72;49.62;98369.31;6244563;23;20306;-39
2022/02/25 10:34:16;;;;;;;5.03;1.30;;;6.00;55.80;;;5.76;49.31;98362.00;6245169;23;20020;-40
2022/02/25 10:36:48;;;;;;;4.70;2.13;;;6.00;55.20;;;5.73;49.30;98376.25;6243378;23;20054;-39
2022/02/25 10:39:21;;;;;;;3.60;1.50;;;5.90;54.50;;;5.76;48.43;98379.63;6243186;23;20012;-40
2022/02/25 10:42:18;;;;;;;5.50;1.60;;;6.00;54.50;;;5.78;48.20;98370.66;6245192;23;20027;-39
2022/02/25 10:44:59;;;;;;;4.60;1.57;;;6.00;54.40;;;5.89;49.19;98365.44;6243505;23;20238;-39
2022/02/25 10:47:30;;;;;;;8.30;1.90;;;6.10;54.90;;;5.95;48.68;98365.91;6244392;23;20030;-39
2022/02/25 10:50:15;;;;;;;12.47;2.60;;;6.10;54.50;;;5.98;49.37;98369.19;6209368;23;20019;-39